Ajo, AZ (85321)

6:43 AM MST on December 07, 2016 (GMT -0700)
KAZAJO2 | | Change Station

Elev 1739 ft 32.38 °N, 112.86 °W | Updated 3 minutes ago

Overcast
Overcast
48.8 °F
Feels Like 49 °F
N
0.0
Wind Variable Wind from SE
Gusts 0.0 mph

Today
High -- | Low -- °F
--% Chance of Precip.
Yesterday
High -- | Low -- °F
Precip. -- in
Pressure 29.94 in
Visibility 10.0 miles
Clouds Mostly Cloudy 2800 ft
Mostly Cloudy 3600 ft
Overcast 4400 ft
Windchill 49 °F
Dew Point 43 °F
Humidity 80%
Rainfall 0.00 in
Snow Depth Not available.
7:20 AM 5:26 PM
First Quarter, 52% visible
METAR KGXF 071258Z AUTO 00000KT 10SM BKN028 BKN036 OVC044 09/05 A2995 RMK AO2 SLP138 T00910048
Pressure 29.94 in
Visibility 10.0 miles
Clouds Mostly Cloudy 2800 ft
Mostly Cloudy 3600 ft
Overcast 4400 ft
Windchill 49 °F
Dew Point 43 °F
Humidity 80%
Rainfall 0.00 in
Snow Depth Not available.
7:20 AM 5:26 PM
First Quarter, 52% visible
METAR KGXF 071258Z AUTO 00000KT 10SM BKN028 BKN036 OVC044 09/05 A2995 RMK AO2 SLP138 T00910048

10-Day Weather Forecast

Almanac

Astronomy

Dec. 07, 2016 Rise Set
Actual Time
Civil Twilight
Nautical Twilight
Astronomical Twilight
Moon
Length of Visible Light
Length of Day
Tomorrow will be .
, % of the Moon is Illuminated

Today's Extremes

State Highs State Lows

Community

WunderPhotos

Upload Photos

1,956,114 photos uploaded!

WunderBlog® & News

Nearby

Air Quality

  Air Quality AQ Index Pollutant
Not available.

Snow Depth

Station Depth Elevation

Earthquake Activity

City Distance Mag. Time & Date
Minimum magnitude displayed is 2.5.

Coastal Water Temperatures

Place Temperature

Stations

Nearby Weather Stations

Station Location Temp. Windchill Dew Point Humidity Wind Precip. Elev Updated Type
                   

Watches & Warnings

There are currently no watches in effect.